sensor_id;sensor_type;location;lat;lon;timestamp;P1;durP1;ratioP1;P2;durP2;ratioP2
66118;SDS011;52912;48.564;9.302;2022-12-11T00:01:08;19.05;;;11.50;;
66118;SDS011;52912;48.564;9.302;2022-12-11T00:03:34;22.67;;;12.02;;
66118;SDS011;52912;48.564;9.302;2022-12-11T00:06:04;18.42;;;10.43;;
66118;SDS011;52912;48.564;9.302;2022-12-11T00:08:30;18.20;;;10.30;;
66118;SDS011;52912;48.564;9.302;2022-12-11T00:10:56;18.85;;;10.25;;
66118;SDS011;52912;48.564;9.302;2022-12-11T00:13:21;19.38;;;11.00;;
66118;SDS011;52912;48.564;9.302;2022-12-11T00:15:47;20.45;;;10.70;;
66118;SDS011;52912;48.564;9.302;2022-12-11T00:18:12;20.30;;;11.15;;
66118;SDS011;52912;48.564;9.302;2022-12-11T00:20:37;18.30;;;10.98;;
66118;SDS011;52912;48.564;9.302;2022-12-11T00:23:04;18.70;;;10.18;;
66118;SDS011;52912;48.564;9.302;2022-12-11T00:25:30;19.35;;;11.30;;
66118;SDS011;52912;48.564;9.302;2022-12-11T00:27:55;18.65;;;10.52;;
66118;SDS011;52912;48.564;9.302;2022-12-11T00:30:21;19.15;;;11.30;;
66118;SDS011;52912;48.564;9.302;2022-12-11T00:32:46;20.33;;;11.77;;
66118;SDS011;52912;48.564;9.302;2022-12-11T00:35:12;20.23;;;12.23;;
66118;SDS011;52912;48.564;9.302;2022-12-11T00:37:37;18.58;;;10.95;;
66118;SDS011;52912;48.564;9.302;2022-12-11T00:40:05;20.10;;;11.93;;
66118;SDS011;52912;48.564;9.302;2022-12-11T00:42:31;22.20;;;12.00;;
66118;SDS011;52912;48.564;9.302;2022-12-11T00:44:56;20.75;;;11.50;;
66118;SDS011;52912;48.564;9.302;2022-12-11T00:47:22;19.52;;;11.23;;
66118;SDS011;52912;48.564;9.302;2022-12-11T00:49:47;19.00;;;11.27;;
66118;SDS011;52912;48.564;9.302;2022-12-11T00:52:13;19.67;;;11.40;;
66118;SDS011;52912;48.564;9.302;2022-12-11T00:54:38;21.42;;;10.85;;
66118;SDS011;52912;48.564;9.302;2022-12-11T00:57:05;21.65;;;11.40;;
66118;SDS011;52912;48.564;9.302;2022-12-11T00:59:30;18.75;;;11.52;;
66118;SDS011;52912;48.564;9.302;2022-12-11T01:01:56;19.55;;;11.15;;
66118;SDS011;52912;48.564;9.302;2022-12-11T01:04:21;20.55;;;11.27;;
66118;SDS011;52912;48.564;9.302;2022-12-11T01:06:47;17.50;;;10.75;;
66118;SDS011;52912;48.564;9.302;2022-12-11T01:09:12;22.80;;;12.05;;
66118;SDS011;52912;48.564;9.302;2022-12-11T01:11:38;17.85;;;10.90;;
66118;SDS011;52912;48.564;9.302;2022-12-11T01:14:05;18.50;;;10.82;;
66118;SDS011;52912;48.564;9.302;2022-12-11T01:16:31;19.45;;;10.73;;
66118;SDS011;52912;48.564;9.302;2022-12-11T01:18:57;19.23;;;12.07;;
66118;SDS011;52912;48.564;9.302;2022-12-11T01:21:23;19.40;;;10.75;;
66118;SDS011;52912;48.564;9.302;2022-12-11T01:23:48;21.77;;;12.68;;
66118;SDS011;52912;48.564;9.302;2022-12-11T01:26:14;20.10;;;12.00;;
66118;SDS011;52912;48.564;9.302;2022-12-11T01:28:40;20.75;;;11.63;;
66118;SDS011;52912;48.564;9.302;2022-12-11T01:31:08;19.73;;;11.65;;
66118;SDS011;52912;48.564;9.302;2022-12-11T01:33:34;18.65;;;10.95;;
66118;SDS011;52912;48.564;9.302;2022-12-11T01:35:59;20.58;;;11.60;;
66118;SDS011;52912;48.564;9.302;2022-12-11T01:38:25;19.13;;;11.80;;
66118;SDS011;52912;48.564;9.302;2022-12-11T01:40:50;19.95;;;11.07;;
66118;SDS011;52912;48.564;9.302;2022-12-11T01:43:16;19.92;;;12.25;;
66118;SDS011;52912;48.564;9.302;2022-12-11T01:45:43;23.00;;;12.35;;
66118;SDS011;52912;48.564;9.302;2022-12-11T01:48:13;21.42;;;12.10;;
66118;SDS011;52912;48.564;9.302;2022-12-11T01:50:42;19.38;;;11.35;;
66118;SDS011;52912;48.564;9.302;2022-12-11T01:53:11;21.70;;;13.27;;
66118;SDS011;52912;48.564;9.302;2022-12-11T01:55:45;22.02;;;12.27;;
66118;SDS011;52912;48.564;9.302;2022-12-11T01:58:12;20.35;;;12.45;;
66118;SDS011;52912;48.564;9.302;2022-12-11T02:00:38;22.90;;;13.32;;
66118;SDS011;52912;48.564;9.302;2022-12-11T02:03:04;23.58;;;13.88;;
66118;SDS011;52912;48.564;9.302;2022-12-11T02:05:31;19.95;;;11.95;;
66118;SDS011;52912;48.564;9.302;2022-12-11T02:07:57;21.55;;;13.00;;
66118;SDS011;52912;48.564;9.302;2022-12-11T02:10:23;23.60;;;13.20;;
66118;SDS011;52912;48.564;9.302;2022-12-11T02:12:58;25.95;;;13.57;;
66118;SDS011;52912;48.564;9.302;2022-12-11T02:15:30;26.98;;;14.75;;
66118;SDS011;52912;48.564;9.302;2022-12-11T02:18:01;27.30;;;15.27;;
66118;SDS011;52912;48.564;9.302;2022-12-11T02:20:35;23.40;;;14.15;;
66118;SDS011;52912;48.564;9.302;2022-12-11T02:26:06;21.48;;;12.50;;
66118;SDS011;52912;48.564;9.302;2022-12-11T02:28:45;25.23;;;13.80;;
66118;SDS011;52912;48.564;9.302;2022-12-11T02:31:15;25.55;;;13.15;;
66118;SDS011;52912;48.564;9.302;2022-12-11T02:33:49;24.67;;;14.38;;
66118;SDS011;52912;48.564;9.302;2022-12-11T02:36:19;26.98;;;14.10;;
66118;SDS011;52912;48.564;9.302;2022-12-11T02:38:49;23.65;;;13.55;;
66118;SDS011;52912;48.564;9.302;2022-12-11T02:41:18;26.92;;;14.40;;
66118;SDS011;52912;48.564;9.302;2022-12-11T02:43:47;23.45;;;13.68;;
66118;SDS011;52912;48.564;9.302;2022-12-11T02:46:14;27.60;;;15.00;;
66118;SDS011;52912;48.564;9.302;2022-12-11T02:48:43;25.05;;;14.10;;
66118;SDS011;52912;48.564;9.302;2022-12-11T02:51:10;26.27;;;14.32;;
66118;SDS011;52912;48.564;9.302;2022-12-11T02:53:39;26.13;;;14.68;;
66118;SDS011;52912;48.564;9.302;2022-12-11T02:56:09;24.85;;;15.32;;
66118;SDS011;52912;48.564;9.302;2022-12-11T02:58:38;28.35;;;14.13;;
66118;SDS011;52912;48.564;9.302;2022-12-11T03:01:10;24.02;;;13.82;;
66118;SDS011;52912;48.564;9.302;2022-12-11T03:03:36;21.73;;;12.85;;
66118;SDS011;52912;48.564;9.302;2022-12-11T03:06:02;32.30;;;15.90;;
66118;SDS011;52912;48.564;9.302;2022-12-11T03:08:27;23.88;;;13.95;;
66118;SDS011;52912;48.564;9.302;2022-12-11T03:10:53;26.50;;;15.25;;
66118;SDS011;52912;48.564;9.302;2022-12-11T03:13:19;19.02;;;11.25;;
66118;SDS011;52912;48.564;9.302;2022-12-11T03:15:48;21.65;;;12.38;;
66118;SDS011;52912;48.564;9.302;2022-12-11T03:18:25;21.10;;;12.00;;
66118;SDS011;52912;48.564;9.302;2022-12-11T03:20:57;22.40;;;11.98;;
66118;SDS011;52912;48.564;9.302;2022-12-11T03:23:29;20.35;;;12.25;;
66118;SDS011;52912;48.564;9.302;2022-12-11T03:26:01;23.27;;;13.88;;
66118;SDS011;52912;48.564;9.302;2022-12-11T03:28:28;25.05;;;13.57;;
66118;SDS011;52912;48.564;9.302;2022-12-11T03:33:28;18.55;;;9.65;;
66118;SDS011;52912;48.564;9.302;2022-12-11T03:35:58;19.70;;;11.43;;
66118;SDS011;52912;48.564;9.302;2022-12-11T03:38:28;19.88;;;11.82;;
66118;SDS011;52912;48.564;9.302;2022-12-11T03:40:58;21.88;;;12.00;;
66118;SDS011;52912;48.564;9.302;2022-12-11T03:43:26;20.80;;;12.07;;
66118;SDS011;52912;48.564;9.302;2022-12-11T03:45:52;20.05;;;11.68;;
66118;SDS011;52912;48.564;9.302;2022-12-11T03:48:19;23.20;;;12.50;;
66118;SDS011;52912;48.564;9.302;2022-12-11T03:50:46;21.38;;;12.45;;
66118;SDS011;52912;48.564;9.302;2022-12-11T03:53:13;22.45;;;12.73;;
66118;SDS011;52912;48.564;9.302;2022-12-11T03:55:39;22.77;;;13.60;;
66118;SDS011;52912;48.564;9.302;2022-12-11T03:58:05;23.63;;;13.38;;
66118;SDS011;52912;48.564;9.302;2022-12-11T04:00:31;24.55;;;13.55;;
66118;SDS011;52912;48.564;9.302;2022-12-11T04:02:56;24.48;;;14.38;;
66118;SDS011;52912;48.564;9.302;2022-12-11T04:05:22;23.85;;;12.98;;
66118;SDS011;52912;48.564;9.302;2022-12-11T04:07:49;23.05;;;12.57;;
66118;SDS011;52912;48.564;9.302;2022-12-11T04:10:14;22.23;;;13.48;;
66118;SDS011;52912;48.564;9.302;2022-12-11T04:12:40;23.13;;;13.68;;
66118;SDS011;52912;48.564;9.302;2022-12-11T04:15:05;22.10;;;12.88;;
66118;SDS011;52912;48.564;9.302;2022-12-11T04:17:32;22.60;;;13.38;;
66118;SDS011;52912;48.564;9.302;2022-12-11T04:19:59;23.13;;;12.93;;
66118;SDS011;52912;48.564;9.302;2022-12-11T04:22:24;23.65;;;13.35;;
66118;SDS011;52912;48.564;9.302;2022-12-11T04:24:51;23.35;;;12.88;;
66118;SDS011;52912;48.564;9.302;2022-12-11T04:27:17;21.80;;;12.85;;
66118;SDS011;52912;48.564;9.302;2022-12-11T04:29:43;22.58;;;12.55;;
66118;SDS011;52912;48.564;9.302;2022-12-11T04:32:08;22.60;;;12.07;;
66118;SDS011;52912;48.564;9.302;2022-12-11T04:34:34;20.92;;;11.70;;
66118;SDS011;52912;48.564;9.302;2022-12-11T04:36:59;23.42;;;12.35;;
66118;SDS011;52912;48.564;9.302;2022-12-11T04:39:25;21.83;;;11.98;;
66118;SDS011;52912;48.564;9.302;2022-12-11T04:41:51;21.35;;;11.93;;
66118;SDS011;52912;48.564;9.302;2022-12-11T04:44:17;20.65;;;11.27;;
66118;SDS011;52912;48.564;9.302;2022-12-11T04:46:42;20.17;;;11.52;;
66118;SDS011;52912;48.564;9.302;2022-12-11T04:49:08;21.27;;;11.38;;
66118;SDS011;52912;48.564;9.302;2022-12-11T04:51:33;17.98;;;10.15;;
66118;SDS011;52912;48.564;9.302;2022-12-11T04:53:59;19.52;;;10.95;;
66118;SDS011;52912;48.564;9.302;2022-12-11T04:56:24;23.38;;;11.68;;
66118;SDS011;52912;48.564;9.302;2022-12-11T04:58:51;21.65;;;11.55;;
66118;SDS011;52912;48.564;9.302;2022-12-11T05:01:18;19.15;;;10.15;;
66118;SDS011;52912;48.564;9.302;2022-12-11T05:03:45;18.67;;;10.93;;
66118;SDS011;52912;48.564;9.302;2022-12-11T05:06:10;17.98;;;10.57;;
66118;SDS011;52912;48.564;9.302;2022-12-11T05:08:37;21.52;;;11.75;;
66118;SDS011;52912;48.564;9.302;2022-12-11T05:11:06;21.45;;;11.60;;
66118;SDS011;52912;48.564;9.302;2022-12-11T05:13:32;18.98;;;10.80;;
66118;SDS011;52912;48.564;9.302;2022-12-11T05:16:00;21.88;;;12.55;;
66118;SDS011;52912;48.564;9.302;2022-12-11T05:18:27;20.80;;;11.75;;
66118;SDS011;52912;48.564;9.302;2022-12-11T05:20:56;21.75;;;11.48;;
66118;SDS011;52912;48.564;9.302;2022-12-11T05:23:23;18.67;;;10.40;;
66118;SDS011;52912;48.564;9.302;2022-12-11T05:25:52;19.48;;;11.18;;
66118;SDS011;52912;48.564;9.302;2022-12-11T05:28:19;19.80;;;11.40;;
66118;SDS011;52912;48.564;9.302;2022-12-11T05:30:44;19.25;;;12.15;;
66118;SDS011;52912;48.564;9.302;2022-12-11T05:33:11;19.65;;;11.32;;
66118;SDS011;52912;48.564;9.302;2022-12-11T05:35:37;20.00;;;11.35;;
66118;SDS011;52912;48.564;9.302;2022-12-11T05:38:02;18.52;;;9.95;;
66118;SDS011;52912;48.564;9.302;2022-12-11T05:40:27;22.98;;;11.20;;
66118;SDS011;52912;48.564;9.302;2022-12-11T05:42:53;21.50;;;11.82;;
66118;SDS011;52912;48.564;9.302;2022-12-11T05:45:18;20.50;;;11.05;;
66118;SDS011;52912;48.564;9.302;2022-12-11T05:47:44;19.05;;;10.70;;
66118;SDS011;52912;48.564;9.302;2022-12-11T05:50:11;20.25;;;10.25;;
66118;SDS011;52912;48.564;9.302;2022-12-11T05:52:36;19.27;;;10.57;;
66118;SDS011;52912;48.564;9.302;2022-12-11T05:55:01;17.05;;;9.52;;
66118;SDS011;52912;48.564;9.302;2022-12-11T05:57:27;18.52;;;10.25;;
66118;SDS011;52912;48.564;9.302;2022-12-11T05:59:52;18.00;;;10.18;;
66118;SDS011;52912;48.564;9.302;2022-12-11T06:02:18;20.52;;;10.98;;
66118;SDS011;52912;48.564;9.302;2022-12-11T06:04:43;18.80;;;9.70;;
66118;SDS011;52912;48.564;9.302;2022-12-11T06:07:10;16.83;;;9.52;;
66118;SDS011;52912;48.564;9.302;2022-12-11T06:09:37;15.05;;;8.93;;
66118;SDS011;52912;48.564;9.302;2022-12-11T06:12:02;18.08;;;9.40;;
66118;SDS011;52912;48.564;9.302;2022-12-11T06:14:28;17.67;;;10.00;;
66118;SDS011;52912;48.564;9.302;2022-12-11T06:16:54;18.98;;;10.18;;
66118;SDS011;52912;48.564;9.302;2022-12-11T06:19:19;17.77;;;10.07;;
66118;SDS011;52912;48.564;9.302;2022-12-11T06:21:44;13.85;;;7.57;;
66118;SDS011;52912;48.564;9.302;2022-12-11T06:24:11;17.48;;;9.35;;
66118;SDS011;52912;48.564;9.302;2022-12-11T06:26:37;17.83;;;9.32;;
66118;SDS011;52912;48.564;9.302;2022-12-11T06:29:02;15.38;;;8.00;;
66118;SDS011;52912;48.564;9.302;2022-12-11T06:31:28;18.10;;;10.07;;
66118;SDS011;52912;48.564;9.302;2022-12-11T06:33:53;18.73;;;9.55;;
66118;SDS011;52912;48.564;9.302;2022-12-11T06:36:20;14.43;;;8.43;;
66118;SDS011;52912;48.564;9.302;2022-12-11T06:38:46;15.68;;;8.13;;
66118;SDS011;52912;48.564;9.302;2022-12-11T06:41:13;14.93;;;8.18;;
66118;SDS011;52912;48.564;9.302;2022-12-11T06:43:39;15.32;;;9.05;;
66118;SDS011;52912;48.564;9.302;2022-12-11T06:46:06;14.80;;;7.72;;
66118;SDS011;52912;48.564;9.302;2022-12-11T06:48:33;14.40;;;7.75;;
66118;SDS011;52912;48.564;9.302;2022-12-11T06:50:59;17.40;;;7.60;;
66118;SDS011;52912;48.564;9.302;2022-12-11T06:53:28;14.27;;;8.57;;
66118;SDS011;52912;48.564;9.302;2022-12-11T06:55:54;15.88;;;9.05;;
66118;SDS011;52912;48.564;9.302;2022-12-11T06:58:20;19.85;;;9.77;;
66118;SDS011;52912;48.564;9.302;2022-12-11T07:00:46;17.73;;;9.75;;
66118;SDS011;52912;48.564;9.302;2022-12-11T07:03:11;14.73;;;9.00;;
66118;SDS011;52912;48.564;9.302;2022-12-11T07:05:37;17.80;;;10.02;;
66118;SDS011;52912;48.564;9.302;2022-12-11T07:08:02;22.02;;;9.90;;
66118;SDS011;52912;48.564;9.302;2022-12-11T07:10:28;18.67;;;10.02;;
66118;SDS011;52912;48.564;9.302;2022-12-11T07:12:53;19.05;;;10.65;;
66118;SDS011;52912;48.564;9.302;2022-12-11T07:15:20;21.88;;;12.18;;
66118;SDS011;52912;48.564;9.302;2022-12-11T07:17:45;19.05;;;10.93;;
66118;SDS011;52912;48.564;9.302;2022-12-11T07:20:11;18.80;;;10.27;;
66118;SDS011;52912;48.564;9.302;2022-12-11T07:22:37;20.90;;;11.05;;
66118;SDS011;52912;48.564;9.302;2022-12-11T07:25:02;17.83;;;9.98;;
66118;SDS011;52912;48.564;9.302;2022-12-11T07:27:28;19.67;;;10.60;;
66118;SDS011;52912;48.564;9.302;2022-12-11T07:29:53;20.42;;;11.25;;
66118;SDS011;52912;48.564;9.302;2022-12-11T07:32:20;21.27;;;11.25;;
66118;SDS011;52912;48.564;9.302;2022-12-11T07:34:46;19.60;;;10.60;;
66118;SDS011;52912;48.564;9.302;2022-12-11T07:37:12;19.23;;;11.15;;
66118;SDS011;52912;48.564;9.302;2022-12-11T07:39:38;20.30;;;11.10;;
66118;SDS011;52912;48.564;9.302;2022-12-11T07:42:03;25.00;;;12.70;;
66118;SDS011;52912;48.564;9.302;2022-12-11T07:44:29;20.33;;;10.52;;
66118;SDS011;52912;48.564;9.302;2022-12-11T07:46:54;20.35;;;10.48;;
66118;SDS011;52912;48.564;9.302;2022-12-11T07:49:21;17.65;;;9.93;;
66118;SDS011;52912;48.564;9.302;2022-12-11T07:51:46;19.70;;;10.95;;
66118;SDS011;52912;48.564;9.302;2022-12-11T07:54:12;19.40;;;10.95;;
66118;SDS011;52912;48.564;9.302;2022-12-11T07:56:39;16.23;;;10.15;;
66118;SDS011;52912;48.564;9.302;2022-12-11T07:59:05;20.20;;;10.65;;
66118;SDS011;52912;48.564;9.302;2022-12-11T08:01:31;18.65;;;10.43;;
66118;SDS011;52912;48.564;9.302;2022-12-11T08:03:58;19.83;;;11.00;;
66118;SDS011;52912;48.564;9.302;2022-12-11T08:06:25;18.52;;;11.20;;
66118;SDS011;52912;48.564;9.302;2022-12-11T08:08:52;20.67;;;11.50;;
66118;SDS011;52912;48.564;9.302;2022-12-11T08:11:17;20.88;;;11.73;;
66118;SDS011;52912;48.564;9.302;2022-12-11T08:13:43;17.65;;;9.57;;
66118;SDS011;52912;48.564;9.302;2022-12-11T08:16:09;20.52;;;9.93;;
66118;SDS011;52912;48.564;9.302;2022-12-11T08:18:36;19.73;;;10.32;;
66118;SDS011;52912;48.564;9.302;2022-12-11T08:21:04;14.57;;;6.57;;
66118;SDS011;52912;48.564;9.302;2022-12-11T08:23:31;21.73;;;11.00;;
66118;SDS011;52912;48.564;9.302;2022-12-11T08:25:57;15.95;;;8.98;;
66118;SDS011;52912;48.564;9.302;2022-12-11T08:28:22;20.85;;;11.00;;
66118;SDS011;52912;48.564;9.302;2022-12-11T08:30:48;21.15;;;10.77;;
66118;SDS011;52912;48.564;9.302;2022-12-11T08:33:13;23.90;;;12.98;;
66118;SDS011;52912;48.564;9.302;2022-12-11T08:35:39;19.88;;;11.50;;
66118;SDS011;52912;48.564;9.302;2022-12-11T08:38:06;21.17;;;12.05;;
66118;SDS011;52912;48.564;9.302;2022-12-11T08:40:33;20.98;;;11.25;;
66118;SDS011;52912;48.564;9.302;2022-12-11T08:42:58;23.75;;;12.70;;
66118;SDS011;52912;48.564;9.302;2022-12-11T08:45:24;21.55;;;12.18;;
66118;SDS011;52912;48.564;9.302;2022-12-11T08:47:49;21.70;;;11.50;;
66118;SDS011;52912;48.564;9.302;2022-12-11T08:50:14;20.42;;;11.70;;
66118;SDS011;52912;48.564;9.302;2022-12-11T08:52:40;18.95;;;10.52;;
66118;SDS011;52912;48.564;9.302;2022-12-11T08:55:06;34.22;;;15.43;;
66118;SDS011;52912;48.564;9.302;2022-12-11T08:57:33;23.42;;;11.90;;
66118;SDS011;52912;48.564;9.302;2022-12-11T08:59:58;31.05;;;15.32;;
66118;SDS011;52912;48.564;9.302;2022-12-11T09:02:24;26.05;;;12.88;;
66118;SDS011;52912;48.564;9.302;2022-12-11T09:04:49;21.20;;;11.07;;
66118;SDS011;52912;48.564;9.302;2022-12-11T09:07:15;18.90;;;10.90;;
66118;SDS011;52912;48.564;9.302;2022-12-11T09:09:40;23.05;;;12.25;;
66118;SDS011;52912;48.564;9.302;2022-12-11T09:12:06;18.35;;;10.70;;
66118;SDS011;52912;48.564;9.302;2022-12-11T09:14:32;28.77;;;13.38;;
66118;SDS011;52912;48.564;9.302;2022-12-11T09:16:58;47.90;;;17.75;;
66118;SDS011;52912;48.564;9.302;2022-12-11T09:19:23;28.25;;;13.88;;
66118;SDS011;52912;48.564;9.302;2022-12-11T09:21:49;19.92;;;10.90;;
66118;SDS011;52912;48.564;9.302;2022-12-11T09:24:14;21.88;;;11.48;;
66118;SDS011;52912;48.564;9.302;2022-12-11T09:26:40;24.38;;;10.98;;
66118;SDS011;52912;48.564;9.302;2022-12-11T09:29:05;25.63;;;12.52;;
66118;SDS011;52912;48.564;9.302;2022-12-11T09:31:33;22.90;;;12.00;;
66118;SDS011;52912;48.564;9.302;2022-12-11T09:34:00;15.02;;;8.93;;
66118;SDS011;52912;48.564;9.302;2022-12-11T09:36:27;19.25;;;10.07;;
66118;SDS011;52912;48.564;9.302;2022-12-11T09:38:52;21.80;;;11.63;;
66118;SDS011;52912;48.564;9.302;2022-12-11T09:41:37;19.63;;;11.43;;
66118;SDS011;52912;48.564;9.302;2022-12-11T09:46:49;18.40;;;9.85;;
66118;SDS011;52912;48.564;9.302;2022-12-11T09:49:23;21.35;;;9.73;;
66118;SDS011;52912;48.564;9.302;2022-12-11T09:51:53;18.67;;;9.57;;
66118;SDS011;52912;48.564;9.302;2022-12-11T09:54:25;18.67;;;9.43;;
66118;SDS011;52912;48.564;9.302;2022-12-11T09:56:53;16.80;;;9.70;;
66118;SDS011;52912;48.564;9.302;2022-12-11T09:59:26;17.35;;;9.32;;
66118;SDS011;52912;48.564;9.302;2022-12-11T10:01:59;18.25;;;9.88;;
66118;SDS011;52912;48.564;9.302;2022-12-11T10:04:37;19.23;;;10.45;;
66118;SDS011;52912;48.564;9.302;2022-12-11T10:07:10;14.32;;;7.85;;
66118;SDS011;52912;48.564;9.302;2022-12-11T10:09:42;15.95;;;9.18;;
66118;SDS011;52912;48.564;9.302;2022-12-11T10:12:16;16.02;;;8.85;;
66118;SDS011;52912;48.564;9.302;2022-12-11T10:14:53;14.30;;;8.40;;
66118;SDS011;52912;48.564;9.302;2022-12-11T10:17:34;18.58;;;10.38;;
66118;SDS011;52912;48.564;9.302;2022-12-11T10:22:41;15.25;;;9.07;;
66118;SDS011;52912;48.564;9.302;2022-12-11T10:25:12;22.75;;;11.02;;
66118;SDS011;52912;48.564;9.302;2022-12-11T10:27:43;16.10;;;9.02;;
66118;SDS011;52912;48.564;9.302;2022-12-11T10:30:12;19.10;;;9.40;;
66118;SDS011;52912;48.564;9.302;2022-12-11T10:32:44;19.73;;;10.50;;
66118;SDS011;52912;48.564;9.302;2022-12-11T10:35:17;16.20;;;9.85;;
66118;SDS011;52912;48.564;9.302;2022-12-11T10:37:48;19.15;;;10.52;;
66118;SDS011;52912;48.564;9.302;2022-12-11T10:40:14;17.58;;;9.90;;
66118;SDS011;52912;48.564;9.302;2022-12-11T10:42:50;18.13;;;10.07;;
66118;SDS011;52912;48.564;9.302;2022-12-11T10:45:16;19.35;;;10.18;;
66118;SDS011;52912;48.564;9.302;2022-12-11T10:47:43;18.15;;;10.20;;
66118;SDS011;52912;48.564;9.302;2022-12-11T10:50:20;16.70;;;9.30;;
66118;SDS011;52912;48.564;9.302;2022-12-11T10:52:47;18.73;;;11.67;;
66118;SDS011;52912;48.564;9.302;2022-12-11T10:55:16;17.40;;;9.80;;
66118;SDS011;52912;48.564;9.302;2022-12-11T10:57:45;15.23;;;8.63;;
66118;SDS011;52912;48.564;9.302;2022-12-11T11:00:25;17.80;;;10.75;;
66118;SDS011;52912;48.564;9.302;2022-12-11T11:02:56;17.80;;;9.63;;
66118;SDS011;52912;48.564;9.302;2022-12-11T11:05:27;17.42;;;9.15;;
66118;SDS011;52912;48.564;9.302;2022-12-11T11:08:01;18.63;;;9.63;;
66118;SDS011;52912;48.564;9.302;2022-12-11T11:10:28;18.73;;;10.40;;
66118;SDS011;52912;48.564;9.302;2022-12-11T11:12:54;19.35;;;10.45;;
66118;SDS011;52912;48.564;9.302;2022-12-11T11:15:25;19.05;;;10.98;;
66118;SDS011;52912;48.564;9.302;2022-12-11T11:17:52;16.60;;;8.65;;
66118;SDS011;52912;48.564;9.302;2022-12-11T11:20:21;18.80;;;8.80;;
66118;SDS011;52912;48.564;9.302;2022-12-11T11:22:48;17.05;;;9.98;;
66118;SDS011;52912;48.564;9.302;2022-12-11T11:25:17;13.95;;;8.38;;
66118;SDS011;52912;48.564;9.302;2022-12-11T11:27:44;18.83;;;9.88;;
66118;SDS011;52912;48.564;9.302;2022-12-11T11:30:16;18.70;;;9.73;;
66118;SDS011;52912;48.564;9.302;2022-12-11T11:32:44;15.77;;;8.43;;
66118;SDS011;52912;48.564;9.302;2022-12-11T11:35:14;11.75;;;6.75;;
66118;SDS011;52912;48.564;9.302;2022-12-11T11:37:45;17.45;;;9.30;;
66118;SDS011;52912;48.564;9.302;2022-12-11T11:40:18;18.90;;;10.55;;
66118;SDS011;52912;48.564;9.302;2022-12-11T11:42:50;17.83;;;8.35;;
66118;SDS011;52912;48.564;9.302;2022-12-11T11:45:20;15.48;;;8.30;;
66118;SDS011;52912;48.564;9.302;2022-12-11T11:47:54;14.45;;;7.57;;
66118;SDS011;52912;48.564;9.302;2022-12-11T11:50:29;14.27;;;8.05;;
66118;SDS011;52912;48.564;9.302;2022-12-11T11:53:01;17.33;;;8.15;;
66118;SDS011;52912;48.564;9.302;2022-12-11T11:55:31;16.02;;;7.70;;
66118;SDS011;52912;48.564;9.302;2022-12-11T11:58:04;13.32;;;7.80;;
66118;SDS011;52912;48.564;9.302;2022-12-11T12:00:36;13.93;;;7.57;;
66118;SDS011;52912;48.564;9.302;2022-12-11T12:03:02;16.10;;;7.72;;
66118;SDS011;52912;48.564;9.302;2022-12-11T12:05:34;14.60;;;7.43;;
66118;SDS011;52912;48.564;9.302;2022-12-11T12:08:08;13.35;;;7.30;;
66118;SDS011;52912;48.564;9.302;2022-12-11T12:10:39;40.00;;;16.90;;
66118;SDS011;52912;48.564;9.302;2022-12-11T12:13:12;16.75;;;8.98;;
66118;SDS011;52912;48.564;9.302;2022-12-11T12:15:46;41.47;;;16.92;;
66118;SDS011;52912;48.564;9.302;2022-12-11T12:18:19;14.02;;;7.80;;
66118;SDS011;52912;48.564;9.302;2022-12-11T12:20:57;14.63;;;7.43;;
66118;SDS011;52912;48.564;9.302;2022-12-11T12:23:34;15.50;;;8.07;;
66118;SDS011;52912;48.564;9.302;2022-12-11T12:26:10;12.20;;;6.75;;
66118;SDS011;52912;48.564;9.302;2022-12-11T12:28:43;13.70;;;7.60;;
66118;SDS011;52912;48.564;9.302;2022-12-11T12:31:34;13.60;;;7.75;;
66118;SDS011;52912;48.564;9.302;2022-12-11T12:34:16;11.88;;;6.05;;
66118;SDS011;52912;48.564;9.302;2022-12-11T12:37:03;15.65;;;7.50;;
66118;SDS011;52912;48.564;9.302;2022-12-11T12:39:42;17.20;;;7.03;;
66118;SDS011;52912;48.564;9.302;2022-12-11T12:42:18;16.60;;;8.45;;
66118;SDS011;52912;48.564;9.302;2022-12-11T12:44:56;12.88;;;7.57;;
66118;SDS011;52912;48.564;9.302;2022-12-11T12:47:24;13.25;;;7.38;;
66118;SDS011;52912;48.564;9.302;2022-12-11T12:49:51;15.43;;;8.85;;
66118;SDS011;52912;48.564;9.302;2022-12-11T12:52:19;15.10;;;8.75;;
66118;SDS011;52912;48.564;9.302;2022-12-11T12:54:59;15.18;;;8.55;;
66118;SDS011;52912;48.564;9.302;2022-12-11T12:57:29;16.02;;;9.23;;
66118;SDS011;52912;48.564;9.302;2022-12-11T12:59:59;15.38;;;9.02;;
66118;SDS011;52912;48.564;9.302;2022-12-11T13:02:26;18.63;;;9.90;;
66118;SDS011;52912;48.564;9.302;2022-12-11T13:04:57;20.25;;;9.43;;
66118;SDS011;52912;48.564;9.302;2022-12-11T13:07:47;16.75;;;9.50;;
66118;SDS011;52912;48.564;9.302;2022-12-11T13:10:27;13.77;;;8.05;;
66118;SDS011;52912;48.564;9.302;2022-12-11T13:12:58;16.27;;;9.07;;
66118;SDS011;52912;48.564;9.302;2022-12-11T13:15:31;16.23;;;8.45;;
66118;SDS011;52912;48.564;9.302;2022-12-11T13:18:03;15.43;;;8.93;;
66118;SDS011;52912;48.564;9.302;2022-12-11T13:20:51;13.95;;;7.18;;
66118;SDS011;52912;48.564;9.302;2022-12-11T13:23:31;11.38;;;6.72;;
66118;SDS011;52912;48.564;9.302;2022-12-11T13:26:00;10.65;;;6.40;;
66118;SDS011;52912;48.564;9.302;2022-12-11T13:28:28;13.68;;;6.25;;
66118;SDS011;52912;48.564;9.302;2022-12-11T13:31:23;15.43;;;7.65;;
66118;SDS011;52912;48.564;9.302;2022-12-11T13:33:55;14.10;;;6.88;;
66118;SDS011;52912;48.564;9.302;2022-12-11T13:36:24;15.10;;;9.18;;
66118;SDS011;52912;48.564;9.302;2022-12-11T13:38:54;11.95;;;7.63;;
66118;SDS011;52912;48.564;9.302;2022-12-11T13:43:49;13.73;;;6.90;;
66118;SDS011;52912;48.564;9.302;2022-12-11T13:46:18;12.73;;;6.90;;
66118;SDS011;52912;48.564;9.302;2022-12-11T13:48:46;12.80;;;7.75;;
66118;SDS011;52912;48.564;9.302;2022-12-11T13:51:15;12.40;;;6.72;;
66118;SDS011;52912;48.564;9.302;2022-12-11T13:53:41;13.38;;;7.45;;
66118;SDS011;52912;48.564;9.302;2022-12-11T13:56:14;11.45;;;6.68;;
66118;SDS011;52912;48.564;9.302;2022-12-11T13:58:43;11.60;;;6.65;;
66118;SDS011;52912;48.564;9.302;2022-12-11T14:01:09;11.38;;;6.65;;
66118;SDS011;52912;48.564;9.302;2022-12-11T14:03:38;11.40;;;5.97;;
66118;SDS011;52912;48.564;9.302;2022-12-11T14:06:07;11.73;;;7.32;;
66118;SDS011;52912;48.564;9.302;2022-12-11T14:08:35;13.25;;;7.00;;
66118;SDS011;52912;48.564;9.302;2022-12-11T14:11:02;20.23;;;9.77;;
66118;SDS011;52912;48.564;9.302;2022-12-11T14:13:30;16.98;;;9.50;;
66118;SDS011;52912;48.564;9.302;2022-12-11T14:15:59;20.40;;;10.55;;
66118;SDS011;52912;48.564;9.302;2022-12-11T14:18:26;17.48;;;9.65;;
66118;SDS011;52912;48.564;9.302;2022-12-11T14:20:54;20.90;;;10.32;;
66118;SDS011;52912;48.564;9.302;2022-12-11T14:23:21;19.90;;;10.35;;
66118;SDS011;52912;48.564;9.302;2022-12-11T14:25:51;16.35;;;8.75;;
66118;SDS011;52912;48.564;9.302;2022-12-11T14:28:17;18.02;;;10.15;;
66118;SDS011;52912;48.564;9.302;2022-12-11T14:30:44;15.55;;;9.00;;
66118;SDS011;52912;48.564;9.302;2022-12-11T14:33:13;16.52;;;8.80;;
66118;SDS011;52912;48.564;9.302;2022-12-11T14:35:40;17.90;;;9.65;;
66118;SDS011;52912;48.564;9.302;2022-12-11T14:38:09;15.15;;;9.13;;
66118;SDS011;52912;48.564;9.302;2022-12-11T14:40:42;20.02;;;10.07;;
66118;SDS011;52912;48.564;9.302;2022-12-11T14:45:38;14.73;;;8.18;;
66118;SDS011;52912;48.564;9.302;2022-12-11T14:48:07;13.40;;;7.25;;